• Join FlightAware (Why Join?)
  • Login
  • US Flag 
08:10AM EST


 

Airport Tracker/Info


-or-


 

Live Flight TrackerFlight Track Log ✈ GTI2940 ✈ 03-May-2013 ✈ KDOV - EDFH / HHN

Flight Track Log - Related Links

Times and Time Zones

All times are in EDT time to prevent confusion due to time zone crossing. See the GTI2940 flight status page for this flight to view local times or setup timezone preferences in your user account.

Time Position Orientation Groundspeed Altitude Reporting Facility
EDT Latitude Longitude Course Direction KTS MPH feet Rate Location/Type
08:14PM 39.1070 -75.4660 185° South 177 204 400  Level FlightAware
08:14PM 39.0860 -75.4690 186° South 192 221 1,100 1,320 Climbing FlightAware
08:15PM 39.0620 -75.4720 186° South 227 261 1,500 1,067 Climbing FlightAware
08:15PM 39.0420 -75.4610 157° South 239 275 1,900 1,371 Climbing FlightAware
08:15PM 39.0330 -75.4430 123° Southeast 249 287 2,300 2,850 Climbing FlightAware
08:16PM 39.0210 -75.4070 113° Southeast 254 292 3,800 3,667 Climbing FlightAware
08:16PM 39.0071 -75.3569 110° East 262 302 5,600 3,130 Climbing FlightAware ADS-B
08:17PM 39.0001 -75.3316 110° East 268 308 6,200 1,846 Climbing FlightAware ADS-B
08:17PM 38.9965 -75.3185 109° East 270 311 6,400 1,385 Climbing FlightAware ADS-B
08:17PM 38.9954 -75.3131 105° East 269 310 6,500 750 Climbing FlightAware ADS-B
08:17PM 38.9945 -75.3065 100° East 268 308 6,500 429 Level FlightAware ADS-B
08:17PM 38.9949 -75.2911 88° East 268 308 6,600 333 Climbing FlightAware ADS-B
08:17PM 38.9970 -75.2778 79° East 268 308 6,600  Level FlightAware ADS-B
08:17PM 39.0006 -75.2542 79° East 267 307 6,600  Level FlightAware ADS-B
08:18PM 39.0045 -75.2306 78° East 266 306 6,600 188 Level FlightAware ADS-B
08:18PM 39.0092 -75.2053 77° East 269 310 6,700 1,500 Climbing FlightAware ADS-B
08:18PM 39.0142 -75.1802 76° East 273 314 7,400 2,625 Climbing FlightAware ADS-B
08:18PM 39.0194 -75.1558 75° East 279 321 8,100 2,897 Climbing FlightAware ADS-B
08:19PM 39.0240 -75.1349 74° East 283 326 8,800 3,000 Climbing FlightAware ADS-B
08:19PM 39.0320 -75.0991 74° East 286 329 9,800 2,192 Climbing FlightAware ADS-B
08:20PM 39.0435 -75.0469 74° East 320 368 10,700 1,574 Climbing FlightAware ADS-B
08:20PM 39.0562 -74.9875 75° East 359 413 11,400 1,574 Climbing FlightAware ADS-B
08:21PM 39.0701 -74.9216 75° East 385 443 12,300 2,164 Climbing FlightAware ADS-B
08:21PM 39.0844 -74.8535 75° East 398 458 13,600 2,512 Climbing FlightAware ADS-B
08:21PM 39.0917 -74.8228 73° East 403 464 14,100 2,333 Climbing FlightAware ADS-B
08:21PM 39.0949 -74.8125 68° East 405 466 14,300 1,600 Climbing FlightAware ADS-B
08:22PM 39.1028 -74.7914 64° Northeast 407 468 14,500 1,200 Climbing FlightAware ADS-B
08:22PM 39.1126 -74.7707 59° Northeast 408 470 14,700 2,276 Climbing FlightAware ADS-B
08:22PM 39.1349 -74.7326 53° Northeast 411 473 15,600 2,073 Climbing FlightAware ADS-B
08:23PM 39.1810 -74.6677 47° Northeast 421 484 16,600 896 Climbing FlightAware ADS-B
08:23PM 39.2218 -74.6083 48° Northeast 420 483 16,600 290 Level FlightAware ADS-B
08:24PM 39.2605 -74.5493 50° Northeast 423 487 16,900 1,475 Climbing FlightAware ADS-B
08:24PM 39.2984 -74.4901 50° Northeast 429 494 18,100 2,656 Climbing FlightAware ADS-B
08:25PM 39.3372 -74.4293 50° Northeast 429 494 19,600 2,625 Climbing FlightAware ADS-B
08:25PM 39.3792 -74.3638 50° Northeast 434 499 20,900 2,250 Climbing FlightAware ADS-B
08:26PM 39.4196 -74.3008 50° Northeast 442 509 22,000 2,032 Climbing FlightAware ADS-B
08:26PM 39.4601 -74.2378 50° Northeast 449 517 23,000 1,967 Climbing FlightAware ADS-B
08:27PM 39.5002 -74.1754 50° Northeast 455 524 24,000 1,900 Climbing FlightAware ADS-B
08:27PM 39.5411 -74.1117 50° Northeast 462 532 24,900 1,800 Climbing FlightAware ADS-B
08:28PM 39.5825 -74.0466 50° Northeast 471 542 25,800 1,672 Climbing FlightAware ADS-B
08:28PM 39.6248 -73.9801 50° Northeast 477 549 26,600 1,548 Climbing FlightAware ADS-B
08:29PM 39.6686 -73.9113 50° Northeast 482 555 27,400 1,869 Climbing FlightAware ADS-B
08:29PM 39.7119 -73.8432 50° Northeast 482 555 28,500 2,031 Climbing FlightAware ADS-B
08:30PM 39.7604 -73.7665 51° Northeast 480 552 29,600 1,944 Climbing FlightAware ADS-B
08:30PM 39.8111 -73.6864 50° Northeast 475 547 30,800 1,727 Climbing FlightAware ADS-B
08:31PM 39.8529 -73.6202 51° Northeast 475 547 31,500 1,535 Climbing FlightAware ADS-B
08:31PM 39.8716 -73.5925 49° Northeast 473 544 31,900 1,636 Climbing FlightAware ADS-B
08:32PM 39.9185 -73.5312 45° Northeast 467 537 32,700 1,452 Climbing FlightAware ADS-B
08:32PM 39.9679 -73.4724 42° Northeast 464 534 33,400 1,333 Climbing FlightAware ADS-B
08:33PM 40.0189 -73.4136 41° Northeast 461 531 34,100 1,161 Climbing FlightAware ADS-B
08:33PM 40.0667 -73.3587 41° Northeast 459 528 34,600 871 Climbing FlightAware ADS-B
08:34PM 40.1189 -73.2991 41° Northeast 460 529 35,000 358 Climbing FlightAware ADS-B
08:34PM 40.1737 -73.2360 41° Northeast 459 528 35,000  Level FlightAware ADS-B
08:35PM 40.2280 -73.1730 42° Northeast 457 526 35,000  Level FlightAware
08:35PM 40.2433 -73.1556 41° Northeast 458 527 35,000  Level FlightAware ADS-B
08:36PM 40.2921 -73.0990 41° Northeast 459 528 35,000  Level FlightAware ADS-B
08:36PM 40.3583 -73.0223 41° Northeast 460 529 35,000  Level FlightAware ADS-B
08:37PM 40.4171 -72.9537 42° Northeast 461 531 35,000  Level FlightAware ADS-B
08:38PM 40.4900 -72.8690 41° Northeast 462 532 35,000  Level FlightAware
08:38PM 40.5407 -72.8090 42° Northeast 462 532 35,000  Level FlightAware ADS-B
08:39PM 40.5900 -72.7512 42° Northeast 463 533 35,000  Level FlightAware ADS-B
08:39PM 40.6594 -72.6696 42° Northeast 462 532 35,000  Level FlightAware ADS-B
08:40PM 40.7090 -72.6111 42° Northeast 460 529 35,000  Level FlightAware ADS-B
08:40PM 40.7564 -72.5552 42° Northeast 459 528 35,000  Level FlightAware ADS-B
08:41PM 40.8062 -72.4963 42° Northeast 458 527 35,000  Level FlightAware ADS-B
08:42PM 40.8558 -72.4374 42° Northeast 457 526 35,000  Level FlightAware ADS-B
08:42PM 40.9095 -72.3735 42° Northeast 456 525 35,000  Level FlightAware ADS-B
08:43PM 40.9590 -72.3143 42° Northeast 455 524 35,000  Level FlightAware ADS-B
08:43PM 41.0063 -72.2579 42° Northeast 455 524 35,000  Level FlightAware ADS-B
08:44PM 41.0599 -72.1937 42° Northeast 455 524 35,000  Level FlightAware ADS-B
08:44PM 41.1094 -72.1344 42° Northeast 455 524 35,000  Level FlightAware ADS-B
08:45PM 41.1592 -72.0746 42° Northeast 454 522 35,000  Level FlightAware ADS-B
08:45PM 41.2118 -72.0112 42° Northeast 454 522 35,000  Level FlightAware ADS-B
08:46PM 41.2820 -71.9270 42° Northeast 453 521 35,000  Level FlightAware
08:47PM 41.3660 -71.8250 42° Northeast 453 521 35,000  Level FlightAware
08:48PM 41.4750 -71.6920 42° Northeast 453 521 35,000  Level FlightAware
08:54PM 42.0310 -71.0050 42° Northeast 450 518 35,000  Level FlightAware
08:55PM 42.0930 -70.9270 43° Northeast 448 516 35,000  Level FlightAware
08:56PM 42.1590 -70.8440 43° Northeast 447 514 35,000  Level FlightAware
08:56PM 42.2140 -70.7760 42° Northeast 447 514 35,000  Level FlightAware
08:57PM 42.2840 -70.6870 43° Northeast 444 511 35,000  Level FlightAware
08:58PM 42.3520 -70.6010 43° Northeast 442 509 35,000  Level FlightAware
08:58PM 42.4120 -70.5240 43° Northeast 438 504 35,000  Level FlightAware
08:59PM 42.4800 -70.4380 43° Northeast 435 501 35,000  Level FlightAware
09:00PM 42.5370 -70.3650 43° Northeast 433 498 35,000  Level FlightAware
09:01PM 42.5970 -70.2890 43° Northeast 433 498 35,000  Level FlightAware
09:01PM 42.6610 -70.2070 43° Northeast 434 499 35,000  Level FlightAware
09:02PM 42.7270 -70.1290 41° Northeast 432 497 35,000  Level FlightAware
09:03PM 42.7920 -70.0580 39° Northeast 431 496 35,000  Level FlightAware
09:03PM 42.8590 -69.9850 39° Northeast 431 496 35,000  Level FlightAware
09:04PM 42.9200 -69.9180 39° Northeast 430 495 35,000  Level FlightAware
09:05PM 42.9850 -69.8460 39° Northeast 423 487 35,000  Level FlightAware
09:06PM 43.0460 -69.7780 39° Northeast 423 487 35,000  Level FlightAware
09:06PM 43.1170 -69.6980 39° Northeast 429 494 35,000  Level FlightAware
09:07PM 43.1680 -69.6410 39° Northeast 428 493 35,000  Level FlightAware
09:08PM 43.2410 -69.5590 39° Northeast 426 490 35,000  Level FlightAware
09:08PM 43.3060 -69.4850 40° Northeast 426 490 35,000  Level FlightAware
09:09PM 43.3660 -69.4180 39° Northeast 425 489 35,000  Level FlightAware
09:10PM 43.4360 -69.3380 40° Northeast 424 488 35,000  Level FlightAware
09:10PM 43.5010 -69.2650 39° Northeast 423 487 35,000  Level FlightAware
09:11PM 43.5630 -69.1940 40° Northeast 421 484 35,000  Level FlightAware
09:12PM 43.6220 -69.1270 39° Northeast 420 483 35,000  Level FlightAware
09:13PM 43.6910 -69.0480 40° Northeast 419 482 35,000  Level FlightAware
09:13PM 43.7500 -68.9800 40° Northeast 418 481 35,000  Level FlightAware
09:14PM 43.8280 -68.8890 40° Northeast 418 481 35,000  Level FlightAware
09:15PM 43.8940 -68.8130 40° Northeast 418 481 35,000  Level FlightAware
09:15PM 43.9440 -68.7550 40° Northeast 419 482 35,000  Level FlightAware
09:16PM 44.0110 -68.6770 40° Northeast 420 483 35,000  Level FlightAware
09:17PM 44.0830 -68.5920 40° Northeast 421 484 35,000  Level FlightAware
09:18PM 44.1420 -68.5230 40° Northeast 422 486 35,000  Level FlightAware
09:18PM 44.2090 -68.4450 40° Northeast 423 487 35,000  Level FlightAware
09:19PM 44.2700 -68.3740 40° Northeast 425 489 35,000  Level FlightAware
09:20PM 44.3380 -68.2920 41° Northeast 426 490 35,000  Level FlightAware
09:20PM 44.3990 -68.2210 40° Northeast 426 490 35,000  Level FlightAware
09:21PM 44.4590 -68.1490 41° Northeast 427 491 35,000  Level FlightAware
09:22PM 44.5250 -68.0710 40° Northeast 429 494 35,000  Level FlightAware
09:23PM 44.5860 -67.9980 40° Northeast 429 494 35,000  Level FlightAware
09:23PM 44.6520 -67.9190 40° Northeast 429 494 35,000  Level FlightAware
09:24PM 44.7140 -67.8440 41° Northeast 426 490 35,000  Level FlightAware
09:25PM 44.7820 -67.7620 41° Northeast 426 490 35,000  Level FlightAware
09:25PM 44.8420 -67.6900 40° Northeast 426 490 35,000  Level FlightAware
09:26PM 44.9000 -67.6190 41° Northeast 426 490 35,000  Level FlightAware
09:27PM 44.9870 -67.5130 41° Northeast 424 488 35,000  Level FlightAware
09:28PM 45.0460 -67.4420 40° Northeast 423 487 35,000  Level FlightAware
09:28PM 45.1050 -67.3680 42° Northeast 423 487 35,000  Level FlightAware
09:29PM 45.1720 -67.2860 41° Northeast 424 488 35,000  Level FlightAware
09:30PM 45.2300 -67.2150 41° Northeast 426 490 35,000  Level FlightAware
09:30PM 45.2910 -67.1390 41° Northeast 428 493 35,000  Level FlightAware
09:31PM 45.3580 -67.0560 41° Northeast 430 495 35,000  Level FlightAware
09:32PM 45.4190 -66.9810 41° Northeast 431 496 35,000  Level FlightAware
09:33PM 45.4850 -66.8970 42° Northeast 431 496 35,000  Level FlightAware
09:33PM 45.5450 -66.8230 41° Northeast 433 498 35,000  Level FlightAware
09:34PM 45.6050 -66.7480 41° Northeast 434 499 35,000  Level FlightAware
09:35PM 45.6730 -66.6620 41° Northeast 434 499 35,000  Level FlightAware
09:35PM 45.7340 -66.5850 41° Northeast 435 501 35,000  Level FlightAware
09:36PM 45.8010 -66.5000 41° Northeast 431 496 35,000  Level FlightAware
09:37PM 45.8620 -66.4230 41° Northeast 431 496 35,000  Level FlightAware
09:38PM 45.9290 -66.3370 42° Northeast 431 496 35,000  Level FlightAware
09:38PM 45.9910 -66.2580 42° Northeast 433 498 35,000  Level FlightAware
09:39PM 46.0490 -66.1830 42° Northeast 433 498 35,000  Level FlightAware
09:40PM 46.1180 -66.0940 42° Northeast 433 498 35,000  Level FlightAware
09:40PM 46.1600 -66.0400 42° Northeast 433 498 35,000  Level FlightAware
09:41PM 46.2570 -65.9140 42° Northeast 443 510 35,000  Level FlightAware
09:42PM 46.3140 -65.8420 41° Northeast 443 510 35,000  Level FlightAware
09:43PM 46.3840 -65.7490 42° Northeast 446 513 35,000  Level FlightAware
09:43PM 46.4490 -65.6640 42° Northeast 446 513 35,000  Level FlightAware
09:44PM 46.5010 -65.5960 42° Northeast 446 513 35,000  Level FlightAware
09:45PM 46.5530 -65.5280 42° Northeast 446 513 35,000  Level FlightAware
09:45PM 46.6050 -65.4590 42° Northeast 446 513 35,000  Level FlightAware
09:46PM 46.6570 -65.3910 42° Northeast 446 513 35,000  Level FlightAware
09:47PM 46.7220 -65.3050 42° Northeast 446 513 35,000  Level FlightAware
09:48PM 46.7750 -65.2370 41° Northeast 446 513 35,000  Level FlightAware
09:48PM 46.8270 -65.1680 42° Northeast 446 513 35,000  Level FlightAware
09:49PM 46.8790 -65.1000 42° Northeast 446 513 35,000  Level FlightAware
09:50PM 46.9310 -65.0310 42° Northeast 446 513 35,000  Level FlightAware
09:50PM 46.9960 -64.9450 42° Northeast 446 513 35,000  Level FlightAware
09:51PM 47.0480 -64.8760 42° Northeast 446 513 35,000  Level FlightAware
09:52PM 47.1000 -64.8070 42° Northeast 446 513 35,000  Level FlightAware
09:52PM 47.2667 -64.5333 42° Northeast 460 529 35,000  Level Gander Center
09:53PM 47.3333 -64.4500 40° Northeast 460 529 35,000  Level Moncton Center
09:54PM 47.4333 -64.3167 42° Northeast 460 529 35,000  Level Moncton Center
09:55PM 47.5333 -64.1667 45° Northeast 460 529 35,000  Level Moncton Center
09:56PM 47.6167 -64.0500 43° Northeast 460 529 35,000  Level Moncton Center
09:57PM 47.7167 -63.9167 42° Northeast 460 529 35,000  Level Moncton Center
09:58PM 47.8000 -63.8000 43° Northeast 460 529 35,000  Level Moncton Center
09:59PM 47.9000 -63.6667 42° Northeast 470 541 35,000  Level Moncton Center
10:00PM 48.0000 -63.5167 45° Northeast 470 541 35,000  Level Moncton Center
10:01PM 48.0833 -63.4000 43° Northeast 470 541 35,000  Level Moncton Center
10:02PM 48.1833 -63.2500 45° Northeast 470 541 35,000  Level Moncton Center
10:03PM 48.2833 -63.1167 42° Northeast 460 529 35,000  Level Moncton Center
10:04PM 48.3833 -62.9833 42° Northeast 460 529 35,000  Level Moncton Center
10:05PM 48.4667 -62.8500 47° Northeast 460 529 35,000  Level Moncton Center
10:05PM 48.4833 -62.8000 63° Northeast 470 541 35,000  Level Gander Center
10:06PM 48.5667 -62.6667 47° Northeast 470 541 35,000  Level Gander Center
10:07PM 48.6333 -62.5667 45° Northeast 470 541 35,000  Level Moncton Center
10:08PM 48.7333 -62.4500 38° Northeast 460 529 35,000  Level Moncton Center
10:09PM 48.8333 -62.2833 48° Northeast 460 529 35,000  Level Moncton Center
10:10PM 48.9167 -62.1500 46° Northeast 460 529 35,000  Level Moncton Center
10:10PM 48.9500 -62.1000 45° Northeast 470 541 35,000  Level Gander Center
10:11PM 49.0500 -61.9667 41° Northeast 460 529 35,000  Level Gander Center
10:12PM 49.1333 -61.8167 50° Northeast 460 529 35,000  Level Gander Center
10:13PM 49.2333 -61.6833 41° Northeast 460 529 35,000  Level Gander Center
10:14PM 49.2833 -61.6000 47° Northeast 460 529 35,000  Level Moncton Center
10:15PM 49.3667 -61.4667 46° Northeast 460 529 35,000  Level Moncton Center
10:15PM 49.4167 -61.4167 33° Northeast 470 541 35,000  Level Gander Center
10:16PM 49.4667 -61.3000 57° Northeast 470 541 35,000  Level Moncton Center
10:17PM 49.5667 -61.1667 41° Northeast 470 541 35,000  Level Moncton Center
10:18PM 49.6667 -61.0333 41° Northeast 470 541 35,000  Level Moncton Center
10:19PM 49.7333 -60.8667 58° Northeast 470 541 35,000  Level Moncton Center
10:20PM 49.8333 -60.7333 41° Northeast 470 541 35,000  Level Moncton Center
10:21PM 49.9333 -60.6000 41° Northeast 470 541 35,000  Level Moncton Center
10:22PM 50.0167 -60.4333 52° Northeast 470 541 35,000  Level Moncton Center
10:23PM 50.1000 -60.3000 46° Northeast 480 552 35,000  Level Moncton Center
10:23PM 50.1500 -60.2333 40° Northeast 470 541 35,000  Level Gander Center
10:24PM 50.2333 -60.0833 49° Northeast 480 552 35,000  Level Gander Center
10:25PM 50.3000 -60.0000 39° Northeast 480 552 35,000  Level Moncton Center
10:26PM 50.3833 -59.8333 52° Northeast 480 552 35,000  Level Moncton Center
10:26PM 50.4333 -59.7833 32° Northeast 480 552 35,000  Level Gander Center
10:27PM 50.5167 -59.6333 49° Northeast 480 552 35,000  Level Gander Center
10:28PM 50.6000 -59.4833 49° Northeast 480 552 35,000  Level Gander Center
10:29PM 50.6833 -59.3000 54° Northeast 480 552 35,000  Level Gander Center
10:30PM 50.7333 -59.2167 47° Northeast 480 552 35,000  Level Moncton Center
10:31PM 50.8333 -59.0500 46° Northeast 480 552 35,000  Level Moncton Center
10:32PM 50.9000 -58.8667 60° Northeast 480 552 35,000  Level Moncton Center
10:32PM 50.9500 -58.8167 32° Northeast 490 564 35,000  Level Gander Center
10:33PM 51.0333 -58.6167 56° Northeast 490 564 35,000  Level Gander Center
10:34PM 51.1000 -58.4667 55° Northeast 490 564 35,000  Level Gander Center
10:35PM 51.1833 -58.3000 51° Northeast 500 575 35,000  Level Gander Center
10:36PM 51.2833 -58.1000 51° Northeast 500 575 35,000  Level Gander Center
10:37PM 51.3333 -57.9833 56° Northeast 500 575 35,000  Level Moncton Center
10:38PM 51.4167 -57.8167 51° Northeast 500 575 35,000  Level Moncton Center
10:38PM 51.4333 -57.7667 62° Northeast 500 575 35,000  Level Gander Center
10:39PM 51.5333 -57.5667 51° Northeast 500 575 35,000  Level Gander Center
10:40PM 51.6167 -57.4000 51° Northeast 500 575 35,000  Level Gander Center
10:41PM 51.6667 -57.2667 59° Northeast 500 575 35,000  Level Moncton Center
10:42PM 51.7500 -57.1000 51° Northeast 500 575 35,000  Level Moncton Center
10:42PM 51.7833 -57.0333 51° Northeast 500 575 35,000  Level Gander Center
10:43PM 51.8500 -56.8333 62° Northeast 500 575 35,000  Level Gander Center
10:44PM 51.9167 -56.7167 47° Northeast 510 587 35,000  Level Moncton Center
10:45PM 52.0000 -56.5333 54° Northeast 510 587 35,000  Level Moncton Center
10:45PM 52.0333 -56.4667 51° Northeast 510 587 35,000  Level Gander Center
10:46PM 52.1167 -56.3000 51° Northeast 510 587 35,000  Level Gander Center
10:47PM 52.1667 -56.1833 55° Northeast 520 598 35,000  Level Moncton Center
10:48PM 52.2667 -55.9667 53° Northeast 520 598 35,000  Level Moncton Center
10:49PM 52.3333 -55.7833 59° Northeast 520 598 35,000  Level Moncton Center
10:50PM 52.4167 -55.6000 53° Northeast 520 598 35,000  Level Moncton Center
10:51PM 52.5000 -55.4000 56° Northeast 520 598 35,000  Level Moncton Center
10:51PM 52.5333 -55.3333 51° Northeast 520 598 35,000  Level Gander Center
10:52PM 52.5833 -55.2167 55° Northeast 520 598 35,000  Level Moncton Center
10:53PM 52.6833 -55.0000 53° Northeast 520 598 35,000  Level Moncton Center
10:53PM 52.7000 -54.9333 68° East 520 598 35,000  Level Gander Center
10:54PM 52.8000 -54.7000 55° Northeast 520 598 35,000  Level Gander Center
10:55PM 52.8667 -54.5500 54° Northeast 520 598 35,000  Level Gander Center
10:56PM 52.9500 -54.3333 57° Northeast 520 598 35,000  Level Gander Center
10:57PM 53.0167 -54.1667 56° Northeast 520 598 35,000  Level Gander Center
10:58PM 53.1000 -53.9167 61° Northeast 530 610 35,000  Level Gander Center
10:59PM 53.1500 -53.6833 70° East 530 610 35,000  Level Gander Center
11:00PM 53.2167 -53.4833 61° Northeast 530 610 35,000  Level Gander Center
11:01PM 53.2667 -53.2500 70° East 530 610 35,000  Level Gander Center
11:02PM 53.3167 -53.0167 70° East 530 610 35,000  Level Gander Center
11:03PM 53.3667 -52.7833 70° East 530 610 35,000  Level Gander Center
11:04PM 53.4167 -52.5500 70° East 530 610 35,000  Level Gander Center
11:05PM 53.4667 -52.3333 69° East 530 610 35,000  Level Gander Center
11:06PM 53.5167 -52.1000 70° East 530 610 35,000  Level Gander Center
11:07PM 53.5833 -51.8667 64° Northeast 530 610 35,000  Level Gander Center
11:08PM 53.6333 -51.6167 71° East 530 610 35,000  Level Gander Center
11:09PM 53.6833 -51.3833 70° East 530 610 35,000  Level Gander Center
11:10PM 53.7333 -51.1500 70° East 540 621 35,000  Level Gander Center
11:11PM 53.7667 -50.9000 77° East 540 621 35,000  Level Gander Center
11:12PM 53.8333 -50.6667 64° Northeast 540 621 35,000  Level Gander Center
11:13PM 53.8833 -50.4167 71° East 540 621 35,000  Level Gander Center
11:14PM 53.9333 -50.1833 70° East 540 621 35,000  Level Gander Center
11:15PM 53.9667 -49.9333 77° East 540 621 35,000  Level Gander Center
11:16PM 54.0333 -49.7000 64° Northeast 540 621 35,000 Level Gander Center
11:19PM 54.1454 -49.2624 66° East  Level FlightAware Approximate
11:26PM 54.5103 -47.7748 67° East  Level FlightAware Approximate
11:27PM 54.5610 -47.5602 68° East  Level FlightAware Approximate
11:28PM 54.6112 -47.3450 68° East  Level FlightAware Approximate
11:29PM 54.6611 -47.1293 68° East  Level FlightAware Approximate
11:30PM 54.7106 -46.9130 68° East  Level FlightAware Approximate
11:31PM 54.7597 -46.6963 68° East  Level FlightAware Approximate
11:32PM 54.8084 -46.4790 69° East  Level FlightAware Approximate
11:33PM 54.8562 -46.2601 70° East  Level FlightAware Approximate
11:34PM 54.9029 -46.0409 70° East  Level FlightAware Approximate
11:35PM 54.9492 -45.8213 70° East  Level FlightAware Approximate
11:36PM 54.9951 -45.6011 70° East  Level FlightAware Approximate
11:37PM 55.0406 -45.3805 70° East  Level FlightAware Approximate
11:38PM 55.0857 -45.1593 70° East  Level FlightAware Approximate
11:39PM 55.1304 -44.9377 70° East  Level FlightAware Approximate
11:40PM 55.1746 -44.7155 71° East  Level FlightAware Approximate
11:41PM 55.2185 -44.4929 71° East  Level FlightAware Approximate
11:42PM 55.2620 -44.2697 71° East  Level FlightAware Approximate
11:43PM 55.3051 -44.0461 71° East  Level FlightAware Approximate
11:44PM 55.3478 -43.8220 71° East  Level FlightAware Approximate
11:45PM 55.3900 -43.5975 72° East  Level FlightAware Approximate
11:46PM 55.4318 -43.3724 72° East  Level FlightAware Approximate
11:47PM 55.4733 -43.1469 72° East  Level FlightAware Approximate
11:48PM 55.5143 -42.9209 72° East  Level FlightAware Approximate
11:49PM 55.5549 -42.6944 72° East  Level FlightAware Approximate
11:50PM 55.5950 -42.4674 73° East  Level FlightAware Approximate
11:51PM 55.6348 -42.2401 73° East  Level FlightAware Approximate
11:52PM 55.6741 -42.0122 73° East  Level FlightAware Approximate
11:53PM 55.7130 -41.7839 73° East  Level FlightAware Approximate
11:54PM 55.7515 -41.5551 73° East  Level FlightAware Approximate
11:55PM 55.7896 -41.3259 73° East  Level FlightAware Approximate
11:56PM 55.8272 -41.0962 74° East  Level FlightAware Approximate
11:57PM 55.8644 -40.8661 74° East  Level FlightAware Approximate
11:58PM 55.9012 -40.6356 74° East  Level FlightAware Approximate
11:59PM 55.9375 -40.4046 74° East  Level FlightAware Approximate
12:00AM 55.9734 -40.1732 74° East  Level FlightAware Approximate
12:01AM 56.0023 -39.9393 86° East  Level FlightAware Approximate
12:02AM 56.0110 -39.6994 86° East  Level FlightAware Approximate
12:03AM 56.0192 -39.4593 86° East  Level FlightAware Approximate
12:04AM 56.0270 -39.2192 87° East  Level FlightAware Approximate
12:05AM 56.0343 -38.9789 87° East  Level FlightAware Approximate
12:06AM 56.0412 -38.7386 87° East  Level FlightAware Approximate
12:07AM 56.0476 -38.4981 87° East  Level FlightAware Approximate
12:08AM 56.0535 -38.2576 87° East  Level FlightAware Approximate
12:09AM 56.0589 -38.0171 88° East  Level FlightAware Approximate
12:10AM 56.0639 -37.7764 88° East  Level FlightAware Approximate
12:11AM 56.0684 -37.5358 88° East  Level FlightAware Approximate
12:12AM 56.0724 -37.2950 88° East  Level FlightAware Approximate
12:13AM 56.0760 -37.0542 88° East  Level FlightAware Approximate
12:14AM 56.0791 -36.8134 89° East  Level FlightAware Approximate
12:15AM 56.0817 -36.5725 89° East  Level FlightAware Approximate
12:16AM 56.0839 -36.3316 89° East  Level FlightAware Approximate
12:17AM 56.0856 -36.0907 89° East  Level FlightAware Approximate
12:18AM 56.0868 -35.8498 89° East  Level FlightAware Approximate
12:19AM 56.0876 -35.6088 90° East  Level FlightAware Approximate
12:20AM 56.0879 -35.3679 90° East  Level FlightAware Approximate
12:21AM 56.0877 -35.1269 90° East  Level FlightAware Approximate
12:22AM 56.0870 -34.8859 90° East  Level FlightAware Approximate
12:23AM 56.0859 -34.6450 90° East  Level FlightAware Approximate
12:24AM 56.0843 -34.4040 91° East  Level FlightAware Approximate
12:25AM 56.0826 -34.1631 91° East  Level FlightAware Approximate
12:26AM 56.0807 -33.9222 91° East  Level FlightAware Approximate
12:27AM 56.0784 -33.6814 91° East  Level FlightAware Approximate
12:28AM 56.0756 -33.4405 91° East  Level FlightAware Approximate
12:29AM 56.0723 -33.1997 91° East  Level FlightAware Approximate
12:30AM 56.0685 -32.9590 91° East  Level FlightAware Approximate
12:31AM 56.0650 -32.7182 91° East  Level FlightAware Approximate
12:32AM 56.0617 -32.4775 91° East  Level FlightAware Approximate
12:33AM 56.0579 -32.2368 92° East  Level FlightAware Approximate
12:34AM 56.0536 -31.9962 92° East  Level FlightAware Approximate
12:35AM 56.0489 -31.7556 92° East  Level FlightAware Approximate
12:36AM 56.0437 -31.5151 92° East  Level FlightAware Approximate
12:37AM 56.0380 -31.2746 92° East  Level FlightAware Approximate
12:38AM 56.0318 -31.0342 93° East  Level FlightAware Approximate
12:39AM 56.0252 -30.7939 93° East  Level FlightAware Approximate
12:40AM 56.0181 -30.5537 93° East  Level FlightAware Approximate
12:41AM 56.0106 -30.3136 93° East  Level FlightAware Approximate
12:42AM 56.0025 -30.0736 93° East  Level FlightAware Approximate
12:43AM 55.9896 -29.8343 96° East  Level FlightAware Approximate
12:44AM 55.9742 -29.5956 96° East  Level FlightAware Approximate
12:45AM 55.9584 -29.3571 97° East  Level FlightAware Approximate
12:46AM 55.9421 -29.1188 97° East  Level FlightAware Approximate
12:47AM 55.9253 -28.8806 97° East  Level FlightAware Approximate
12:48AM 55.9081 -28.6427 97° East  Level FlightAware Approximate
12:49AM 55.8904 -28.4050 97° East  Level FlightAware Approximate
12:50AM 55.8722 -28.1675 98° East  Level FlightAware Approximate
12:51AM 55.8536 -27.9303 98° East  Level FlightAware Approximate
12:52AM 55.8345 -27.6932 98° East  Level FlightAware Approximate
12:53AM 55.8150 -27.4564 98° East  Level FlightAware Approximate
12:54AM 55.7951 -27.2199 98° East  Level FlightAware Approximate
12:55AM 55.7753 -26.9834 98° East  Level FlightAware Approximate
12:56AM 55.7560 -26.7469 98° East  Level FlightAware Approximate
12:57AM 55.7362 -26.5107 98° East  Level FlightAware Approximate
12:58AM 55.7159 -26.2747 99° East  Level FlightAware Approximate
12:59AM 55.6953 -26.0389 99° East  Level FlightAware Approximate
01:00AM 55.6741 -25.8034 99° East  Level FlightAware Approximate
01:01AM 55.6525 -25.5682 99° East  Level FlightAware Approximate
01:02AM 55.6305 -25.3332 99° East  Level FlightAware Approximate
01:03AM 55.6080 -25.0984 100° East  Level FlightAware Approximate
01:04AM 55.5850 -24.8640 100° East  Level FlightAware Approximate
01:05AM 55.5617 -24.6298 100° East  Level FlightAware Approximate
01:06AM 55.5378 -24.3959 100° East  Level FlightAware Approximate
01:07AM 55.5135 -24.1623 100° East  Level FlightAware Approximate
01:08AM 55.4888 -23.9290 101° East  Level FlightAware Approximate
01:09AM 55.4637 -23.6960 101° East  Level FlightAware Approximate
01:10AM 55.4381 -23.4633 101° East  Level FlightAware Approximate
01:11AM 55.4120 -23.2309 101° East  Level FlightAware Approximate
01:12AM 55.3855 -22.9988 101° East  Level FlightAware Approximate
01:13AM 55.3586 -22.7670 101° East  Level FlightAware Approximate
01:14AM 55.3312 -22.5355 102° East  Level FlightAware Approximate
01:15AM 55.3034 -22.3044 102° East  Level FlightAware Approximate
01:16AM 55.2752 -22.0735 102° East  Level FlightAware Approximate
01:17AM 55.2465 -21.8431 102° East  Level FlightAware Approximate
01:18AM 55.2174 -21.6129 102° East  Level FlightAware Approximate
01:19AM 55.1879 -21.3831 103° East  Level FlightAware Approximate
01:20AM 55.1579 -21.1536 103° East  Level FlightAware Approximate
01:21AM 55.1275 -20.9245 103° East  Level FlightAware Approximate
01:22AM 55.0967 -20.6957 103° East  Level FlightAware Approximate
01:23AM 55.0654 -20.4673 103° East  Level FlightAware Approximate
01:24AM 55.0337 -20.2392 104° East  Level FlightAware Approximate
01:25AM 55.0016 -20.0115 104° East  Level FlightAware Approximate
01:26AM 54.9732 -19.7825 102° East  Level FlightAware Approximate
01:27AM 54.9446 -19.5537 102° East  Level FlightAware Approximate
01:28AM 54.9156 -19.3252 102° East  Level FlightAware Approximate
01:29AM 54.8861 -19.0971 103° East  Level FlightAware Approximate
01:30AM 54.8562 -18.8693 103° East  Level FlightAware Approximate
01:31AM 54.8259 -18.6419 103° East  Level FlightAware Approximate
01:32AM 54.7952 -18.4148 103° East  Level FlightAware Approximate
01:33AM 54.7640 -18.1880 103° East  Level FlightAware Approximate
01:34AM 54.7324 -17.9616 103° East  Level FlightAware Approximate
01:35AM 54.7004 -17.7356 104° East  Level FlightAware Approximate
01:35AM 53.8700 -14.1630 104° East 520 598 35,600  Level FlightAware
01:35AM 53.8450 -14.0060 105° East 512 589 36,800 1,624 Climbing FlightAware
01:36AM 53.8180 -13.8390 105° East 508 585 37,900 847 Climbing FlightAware
01:37AM 53.7930 -13.6840 105° East 507 583 38,000 75 Climbing FlightAware
01:37AM 53.7660 -13.5260 106° East 506 582 38,000  Level FlightAware
01:38AM 53.7380 -13.3560 105° East 507 583 38,000  Level FlightAware
01:39AM 53.7120 -13.2030 106° East 506 582 38,000  Level FlightAware
01:40AM 53.6830 -13.0320 106° East 504 580 38,000  Level FlightAware
01:40AM 53.6580 -12.8820 106° East 503 579 38,000  Level FlightAware
01:41AM 53.6320 -12.7310 106° East 503 579 38,000  Level FlightAware
01:42AM 53.6010 -12.5560 107° East 506 582 38,000  Level FlightAware
01:42AM 53.5760 -12.4130 106° East 506 582 38,000  Level FlightAware
01:43AM 53.5450 -12.2380 107° East 507 583 38,000  Level FlightAware
01:44AM 53.5190 -12.0930 107° East 507 583 38,000  Level FlightAware
01:44AM 53.4900 -11.9350 107° East 508 585 38,000  Level FlightAware
01:45AM 53.4600 -11.7690 107° East 509 586 38,000  Level FlightAware
01:46AM 53.4320 -11.6120 107° East 507 583 38,000  Level FlightAware
01:46AM 53.4040 -11.4640 108° East 508 585 38,000  Level FlightAware
01:47AM 53.3730 -11.2970 107° East 508 585 38,000  Level FlightAware
01:48AM 53.3440 -11.1440 108° East 509 586 38,000  Level FlightAware
01:49AM 53.3120 -10.9760 108° East 509 586 38,000  Level FlightAware
01:49AM 53.2830 -10.8230 108° East 511 588 38,000  Level FlightAware
01:50AM 53.2510 -10.6560 108° East 511 588 38,000  Level FlightAware
01:51AM 53.2210 -10.5050 108° East 513 590 38,000  Level FlightAware
01:51AM 53.1920 -10.3580 108° East 513 590 38,000  Level FlightAware
01:52AM 53.1580 -10.1840 108° East 513 590 38,000  Level FlightAware
01:53AM 53.1280 -10.0350 108° East 513 590 38,000  Level FlightAware
01:54AM 53.0950 -9.8690 108° East 513 590 38,000  Level FlightAware
01:54AM 53.0640 -9.7180 109° East 513 590 38,000  Level FlightAware
01:55AM 53.0340 -9.5710 109° East 512 589 38,000  Level FlightAware
01:56AM 53.0000 -9.4050 109° East 512 589 38,000  Level FlightAware
01:56AM 52.9690 -9.2540 109° East 509 586 38,000  Level FlightAware
01:57AM 52.9330 -9.0850 109° East 511 588 38,000 -1,250 Level FlightAware
01:58AM 52.9106 -8.9776 109° East 478 550 36,500  Descending FlightAware UK
01:58AM 52.9010 -8.9350 109° East 512 589 38,000  Climbing FlightAware
01:58AM 52.8870 -8.8667 109° East 480 552 36,500 -2,743 Descending FlightAware UK
01:58AM 52.8727 -8.8000 110° East 480 552 36,400 3,913 Descending FlightAware UK
01:58AM 52.8700 -8.7860 110° East 514 592 38,000 250 Climbing FlightAware
01:59AM 52.8538 -8.7114 110° East 480 552 36,500 -2,595 Descending FlightAware UK
01:59AM 52.8396 -8.6445 109° East 482 555 36,400 3,462 Descending FlightAware UK
01:59AM 52.8350 -8.6220 109° East 515 593 38,000 250 Climbing FlightAware
01:59AM 52.8205 -8.5556 109° East 482 555 36,500 -2,824 Descending FlightAware UK
02:00AM 52.8061 -8.4891 110° East 482 555 36,400 3,750 Descending FlightAware UK
02:00AM 52.8040 -8.4790 110° East 514 592 38,000 250 Climbing FlightAware
02:00AM 52.7867 -8.4004 110° East 482 555 36,500 -2,500 Descending FlightAware UK
02:00AM 52.7724 -8.3328 109° East 482 555 36,500 3,333 Level FlightAware UK
02:01AM 52.7660 -8.3060 109° East 515 593 38,000 -250 Climbing FlightAware
02:01AM 52.7531 -8.2440 109° East 486 559 36,400 -2,909 Descending FlightAware UK
02:01AM 52.7384 -8.1776 110° East 480 552 36,400 3,840 Level FlightAware UK
02:01AM 52.7340 -8.1580 110° East 513 590 38,000  Climbing FlightAware
02:02AM 52.7191 -8.0895 110° East 476 548 36,400 -2,743 Descending FlightAware UK
02:02AM 52.7043 -8.0236 110° East 480 552 36,400 3,429 Level FlightAware UK
02:02AM 52.6990 -7.9990 110° East 515 593 38,000  Climbing FlightAware
02:02AM 52.6799 -7.9139 110° East 480 552 36,400  Descending FlightAware UK
02:03AM 52.6640 -7.8450 110° East 515 593 38,000  Climbing FlightAware
02:03AM 52.6505 -7.7817 110° East 482 555 36,400 -2,824 Descending FlightAware UK
02:03AM 52.6356 -7.7155 110° East 482 555 36,400 4,000 Level FlightAware UK
02:03AM 52.6320 -7.6990 110° East 515 593 38,000  Climbing FlightAware
02:04AM 52.6160 -7.6273 110° East 484 557 36,400 -2,667 Descending FlightAware UK
02:04AM 52.6011 -7.5615 110° East 484 557 36,400 3,556 Level FlightAware UK
02:04AM 52.5950 -7.5370 110° East 513 590 38,000  Climbing FlightAware
02:04AM 52.5810 -7.4739 110° East 482 555 36,400 -2,909 Descending FlightAware UK
02:05AM 52.5660 -7.4084 111° Southeast 482 555 36,400 3,840 Level FlightAware UK
02:05AM 52.5620 -7.3910 111° Southeast 511 588 38,000  Climbing FlightAware
02:05AM 52.5461 -7.3213 111° Southeast 482 555 36,400 -2,571 Descending FlightAware UK
02:05AM 52.5311 -7.2563 111° Southeast 480 552 36,500 3,429 Climbing FlightAware UK
02:05AM 52.5240 -7.2280 111° Southeast 510 587 38,000 -200 Climbing FlightAware
02:06AM 52.5060 -7.1473 111° Southeast 478 550 36,400 -2,526 Descending FlightAware UK
02:06AM 52.4912 -7.0821 111° Southeast 480 552 36,400 4,800 Level FlightAware UK
02:06AM 52.4920 -7.0860 111° Southeast 511 588 38,000  Climbing FlightAware
02:06AM 52.4762 -7.0171 111° Southeast 478 550 36,400 -2,824 Descending FlightAware UK
02:07AM 52.4611 -6.9522 111° Southeast 478 550 36,400 4,000 Level FlightAware UK
02:07AM 52.4580 -6.9400 111° Southeast 511 588 38,000  Climbing FlightAware
02:07AM 52.4409 -6.8655 111° Southeast 478 550 36,400 -2,667 Descending FlightAware UK
02:07AM 52.4257 -6.8005 111° Southeast 478 550 36,400 3,556 Level FlightAware UK
02:08AM 52.4190 -6.7760 111° Southeast 514 592 38,000  Climbing FlightAware
02:08AM 52.4053 -6.7137 111° Southeast 482 555 36,400 -2,909 Descending FlightAware UK
02:08AM 52.3898 -6.6486 111° Southeast 478 550 36,400 3,840 Level FlightAware UK
02:08AM 52.3870 -6.6380 111° Southeast 515 593 38,000  Climbing FlightAware
02:09AM 52.3694 -6.5615 111° Southeast 480 552 36,400 -2,743 Descending FlightAware UK
02:09AM 52.3538 -6.4962 111° Southeast 480 552 36,400 3,429 Level FlightAware UK
02:09AM 52.3460 -6.4650 111° Southeast 516 594 38,000  Climbing FlightAware
02:09AM 52.3277 -6.3874 111° Southeast 482 555 36,400 -2,526 Descending FlightAware UK
02:10AM 52.3120 -6.3221 111° Southeast 486 559 36,400 4,800 Level FlightAware UK
02:10AM 52.3110 -6.3210 111° Southeast 517 595 38,000  Climbing FlightAware
02:10AM 52.2962 -6.2569 111° Southeast 488 562 36,400 -2,824 Descending FlightAware UK
02:10AM 52.2804 -6.1917 112° Southeast 488 562 36,400 4,000 Level FlightAware UK
02:10AM 52.2770 -6.1790 112° Southeast 514 592 38,000  Climbing FlightAware
02:11AM 52.2594 -6.1050 112° Southeast 490 564 36,400 -2,667 Descending FlightAware UK
02:11AM 52.2439 -6.0402 111° Southeast 490 564 36,400 3,556 Level FlightAware UK
02:11AM 52.2380 -6.0160 111° Southeast 510 587 38,000  Climbing FlightAware
02:11AM 52.2228 -5.9538 111° Southeast 486 559 36,400 -2,909 Descending FlightAware UK
02:12AM 52.2072 -5.8898 112° Southeast 486 559 36,400 3,840 Level FlightAware UK
02:12AM 52.2030 -5.8730 112° Southeast 508 585 38,000  Climbing FlightAware
02:12AM 52.1865 -5.8051 112° Southeast 482 555 36,400 -2,743 Descending FlightAware UK
02:12AM 52.1708 -5.7416 112° Southeast 484 557 36,400 4,174 Level FlightAware UK
02:12AM 52.1690 -5.7320 112° Southeast 507 583 38,000  Climbing FlightAware
02:13AM 52.1533 -5.6549 112° Southeast 482 555 36,400 -2,595 Descending FlightAware UK
02:13AM 52.1423 -5.5889 105° East 482 555 36,400 3,692 Level FlightAware UK
02:13AM 52.1400 -5.5700 105° East 506 582 38,000  Climbing FlightAware
02:14AM 52.1247 -5.4549 105° East 480 552 36,400  Descending FlightAware UK
02:14AM 52.1200 -5.4210 105° East 506 582 38,000  Climbing FlightAware
02:14AM 52.1101 -5.3427 105° East 482 555 36,400 -2,667 Descending FlightAware UK
02:14AM 52.1015 -5.2765 102° East 482 555 36,400 3,556 Level FlightAware UK
02:15AM 52.1010 -5.2700 102° East 508 585 38,000  Climbing FlightAware
02:15AM 52.0896 -5.1864 102° East 482 555 36,400 -2,909 Descending FlightAware UK
02:15AM 52.0808 -5.1195 102° East 482 555 36,400 3,840 Level FlightAware UK
02:15AM 52.0790 -5.1060 102° East 508 585 38,000  Climbing FlightAware
02:16AM 52.0690 -5.0303 102° East 482 555 36,400 -2,743 Descending FlightAware UK
02:16AM 52.0602 -4.9633 102° East 484 557 36,400 3,429 Level FlightAware UK
02:16AM 52.0560 -4.9330 102° East 508 585 38,000 1,920 Climbing FlightAware
02:17AM 52.0360 -4.7830 102° East 510 587 38,000 -1,548 Level FlightAware
02:17AM 52.0237 -4.6952 102° East 486 559 36,400  Descending FlightAware UK
02:17AM 52.0197 -4.6673 102° East 511 588 38,000  Climbing FlightAware ADS-B
02:17AM 52.0113 -4.6048 102° East 488 562 36,400  Descending FlightAware UK
02:18AM 52.0030 -4.5464 102° East 511 588 38,000  Climbing FlightAware ADS-B
02:18AM 51.9929 -4.4703 102° East 486 559 36,400 -2,182 Descending FlightAware UK
02:18AM 51.9803 -4.3808 103° East 484 557 36,400 2,286 Level FlightAware UK
02:19AM 51.9710 -4.3190 103° East 512 589 38,000  Climbing FlightAware
02:19AM 51.9581 -4.2241 103° East 488 562 36,400  Descending FlightAware UK
02:19AM 51.9471 -4.1462 103° East 513 590 38,000  Climbing FlightAware ADS-B
02:20AM 51.9392 -4.0896 103° East 486 559 36,400  Descending FlightAware UK
02:20AM 51.9270 -4.0050 103° East 514 592 38,000 1,811 Climbing FlightAware
02:21AM 51.9107 -3.8906 103° East 514 592 38,000 -2,043 Level FlightAware ADS-B
02:21AM 51.9005 -3.8197 103° East 488 562 36,400 -2,595 Descending FlightAware UK
02:21AM 51.8907 -3.7524 103° East 492 566 36,400  Level FlightAware UK
02:22AM 51.8809 -3.6852 103° East 492 566 36,400 4,800 Level FlightAware UK
02:22AM 51.8820 -3.6950 103° East 513 590 38,000  Climbing FlightAware
02:22AM 51.8677 -3.5957 103° East 490 564 36,400  Descending FlightAware UK
02:22AM 51.8600 -3.5430 103° East 512 589 38,000  Climbing FlightAware
02:23AM 51.8478 -3.4611 103° East 488 562 36,400  Descending FlightAware UK
02:23AM 51.8370 -3.3890 103° East 512 589 38,000  Climbing FlightAware
02:23AM 51.8248 -3.3051 103° East 486 559 36,400 -2,526 Descending FlightAware UK
02:24AM 51.8147 -3.2383 104° East 490 564 36,400 3,840 Level FlightAware UK
02:24AM 51.8130 -3.2270 104° East 514 592 38,000  Climbing FlightAware
02:24AM 51.8013 -3.1490 104° East 488 562 36,400  Descending FlightAware UK
02:24AM 51.7976 -3.1255 104° East 514 592 38,000  Climbing FlightAware ADS-B
02:24AM 51.7877 -3.0596 104° East 490 564 36,400  Descending FlightAware UK
02:25AM 51.7805 -3.0130 104° East 515 593 38,000  Climbing FlightAware ADS-B
02:25AM 51.7706 -2.9472 104° East 490 564 36,400  Descending FlightAware UK
02:25AM 51.7635 -2.9016 104° East 514 592 38,000  Climbing FlightAware ADS-B
02:25AM 51.7535 -2.8358 104° East 488 562 36,400  Descending FlightAware UK
02:26AM 51.7452 -2.7829 104° East 514 592 38,000  Climbing FlightAware ADS-B
02:26AM 51.7363 -2.7245 104° East 492 566 36,400  Descending FlightAware UK
02:26AM 51.7268 -2.6634 104° East 515 593 38,000 167 Climbing FlightAware ADS-B
02:26AM 51.7156 -2.5902 104° East 488 562 36,500  Descending FlightAware UK
02:27AM 51.7089 -2.5494 104° East 516 594 38,000 -200 Climbing FlightAware ADS-B
02:27AM 51.6981 -2.4797 104° East 490 564 36,400  Descending FlightAware UK
02:27AM 51.6910 -2.4359 104° East 515 593 38,000  Climbing FlightAware ADS-B
02:27AM 51.6803 -2.3678 104° East 492 566 36,400  Descending FlightAware UK
02:28AM 51.6716 -2.3137 104° East 515 593 38,000 2,000 Climbing FlightAware ADS-B
02:28AM 51.6521 -2.1918 104° East 514 592 38,000 -1,655 Level FlightAware ADS-B
02:29AM 51.6376 -2.1009 104° East 490 564 36,400  Descending FlightAware UK
02:29AM 51.6342 -2.0807 104° East 513 590 38,000  Climbing FlightAware ADS-B
02:29AM 51.6234 -2.0123 104° East 490 564 36,400  Descending FlightAware UK
02:29AM 51.6160 -1.9674 104° East 515 593 38,000  Climbing FlightAware ADS-B
02:30AM 51.6053 -1.9010 104° East 490 564 36,400  Descending FlightAware UK
02:30AM 51.5977 -1.8556 104° East 515 593 38,000  Climbing FlightAware ADS-B
02:30AM 51.5835 -1.7690 104° East 492 566 36,400  Descending FlightAware UK
02:30AM 51.5788 -1.7405 104° East 515 593 38,000  Climbing FlightAware ADS-B
02:31AM 51.5689 -1.6797 104° East 492 566 36,400  Descending FlightAware UK
02:31AM 51.5600 -1.6262 104° East 514 592 38,000 2,133 Climbing FlightAware ADS-B
02:31AM 51.5413 -1.5140 105° East 514 592 38,000 -2,133 Level FlightAware ADS-B
02:32AM 51.5320 -1.4580 105° East 488 562 36,400  Descending FlightAware UK
02:32AM 51.5223 -1.4013 105° East 516 594 38,000  Climbing FlightAware ADS-B
02:32AM 51.5095 -1.3248 105° East 494 568 36,400  Descending FlightAware UK
02:32AM 51.5037 -1.2897 105° East 516 594 38,000 2,400 Climbing FlightAware ADS-B
02:33AM 51.4881 -1.1771 103° East 515 593 38,000 -1,920 Level FlightAware ADS-B
02:33AM 51.4798 -1.1014 103° East 492 566 36,400  Descending FlightAware UK
02:33AM 51.4765 -1.0614 103° East 514 592 38,000 167 Climbing FlightAware ADS-B
02:34AM 51.4687 -0.9657 103° East 494 568 36,500  Descending FlightAware UK
02:34AM 51.4644 -0.9118 103° East 514 592 38,000 2,000 Climbing FlightAware ADS-B
02:34AM 51.4550 -0.7975 97° East 514 592 38,000 -1,765 Level FlightAware ADS-B
02:35AM 51.4481 -0.7168 97° East 490 564 36,500  Descending FlightAware UK
02:35AM 51.4445 -0.6755 97° East 512 589 38,000  Climbing FlightAware ADS-B
02:35AM 51.4382 -0.6035 97° East 488 562 36,500  Descending FlightAware UK
02:36AM 51.4343 -0.5619 97° East 513 590 38,000  Climbing FlightAware ADS-B
02:36AM 51.4280 -0.4921 97° East 490 564 36,500  Descending FlightAware UK
02:36AM 51.4232 -0.4409 97° East 514 592 38,000 1,957 Climbing FlightAware ADS-B
02:37AM 51.4121 -0.3230 99° East 515 593 38,000 -1,811 Level FlightAware ADS-B
02:37AM 51.4046 -0.2437 99° East 492 566 36,400  Descending FlightAware UK
02:37AM 51.4008 -0.2035 99° East 515 593 38,000  Climbing FlightAware ADS-B
02:37AM 51.3939 -0.1302 99° East 490 564 36,400  Descending FlightAware UK
02:38AM 51.3896 -0.0870 99° East 516 594 38,000 2,182 Climbing FlightAware ADS-B
02:38AM 51.3779 0.0339 99° East 517 595 38,000 -2,000 Level FlightAware ADS-B
02:38AM 51.3718 0.0963 99° East 492 566 36,400  Descending FlightAware UK
02:39AM 51.3662 0.1545 99° East 517 595 38,000 1,959 Climbing FlightAware ADS-B
02:39AM 51.3538 0.2815 99° East 517 595 38,000 -1,920 Level FlightAware ADS-B
02:40AM 51.3474 0.3452 99° East 494 568 36,400 -2,743 Descending FlightAware UK
02:40AM 51.3408 0.4131 99° East 496 571 36,400 4,800 Level FlightAware UK
02:40AM 51.3410 0.4130 99° East 516 594 38,000 4,800 Climbing FlightAware
02:40AM 51.3332 0.4884 99° East 516 594 38,000 -2,824 Level FlightAware ADS-B
02:40AM 51.3271 0.5491 99° East 494 568 36,400  Descending FlightAware UK
02:41AM 51.3185 0.6338 99° East 515 593 38,000 143 Climbing FlightAware ADS-B
02:41AM 51.3111 0.7070 99° East 496 571 36,500  Descending FlightAware UK
02:41AM 51.3061 0.7550 99° East 513 590 38,000  Climbing FlightAware ADS-B
02:42AM 51.2995 0.8187 99° East 494 568 36,500  Descending FlightAware UK
02:42AM 51.2933 0.8792 99° East 512 589 38,000  Climbing FlightAware ADS-B
02:42AM 51.2858 0.9522 99° East 490 564 36,500  Descending FlightAware UK
02:42AM 51.2812 0.9935 99° East 512 589 38,000 2,903 Climbing FlightAware ADS-B
02:43AM 51.2714 1.0647 102° East 510 587 38,000 -2,233 Level FlightAware ADS-B
02:43AM 51.2588 1.1512 102° East 490 564 36,400  Descending FlightAware UK
02:43AM 51.2500 1.2100 102° East 509 586 38,000 1,655 Climbing FlightAware
02:44AM 51.2300 1.3490 103° East 509 586 38,000 -1,600 Level FlightAware
02:44AM 51.2172 1.4365 103° East 490 564 36,400  Descending FlightAware UK
02:45AM 51.2060 1.5180 103° East 508 585 38,000  Climbing FlightAware
02:45AM 51.1951 1.5896 103° East 492 566 36,400 -2,743 Descending FlightAware UK
02:45AM 51.1856 1.6558 103° East 492 566 36,400 4,174 Level FlightAware UK
02:46AM 51.1850 1.6570 103° East 507 583 38,000  Climbing FlightAware
02:46AM 51.1731 1.7423 103° East 490 564 36,400 -2,595 Descending FlightAware UK
02:46AM 51.1635 1.8076 103° East 488 562 36,400 4,571 Level FlightAware UK
02:46AM 51.1640 1.8010 103° East 507 583 38,000  Climbing FlightAware
02:46AM 51.1539 1.8737 103° East 490 564 36,400  Descending FlightAware UK
02:47AM 51.1410 1.9630 103° East 509 586 38,000  Climbing FlightAware
02:47AM 51.1250 2.0706 103° East 490 564 36,400  Descending FlightAware UK
02:48AM 51.1180 2.1200 103° East 509 586 38,000  Climbing FlightAware
02:48AM 51.1053 2.2015 103° East 490 564 36,400 -2,526 Descending FlightAware UK
02:48AM 51.0954 2.2671 103° East 492 566 36,400 3,840 Level FlightAware UK
02:48AM 51.0930 2.2810 103° East 511 588 38,000  Climbing FlightAware
02:49AM 51.0821 2.3553 103° East 494 568 36,400 -2,743 Descending FlightAware UK
02:49AM 51.0722 2.4209 103° East 494 568 36,400 4,174 Level FlightAware UK
02:49AM 51.0740 2.4090 103° East 509 586 38,000  Climbing FlightAware
02:50AM 51.0522 2.5527 103° East 494 568 36,400  Descending FlightAware UK
02:50AM 51.0540 2.5440 103° East 507 583 38,000  Climbing FlightAware
02:50AM 51.0388 2.6398 103° East 496 571 36,400 -2,526 Descending FlightAware UK
02:50AM 51.0287 2.7040 104° East 496 571 36,400 3,310 Level FlightAware UK
02:50AM 51.0230 2.7380 104° East 506 582 38,000  Climbing FlightAware
02:51AM 51.0118 2.8126 104° East 494 568 36,400  Descending FlightAware UK
02:51AM 51.0030 2.8680 104° East 503 579 38,000  Climbing FlightAware
02:51AM 50.9919 2.9413 104° East 494 568 36,400  Descending FlightAware UK
02:52AM 50.9770 3.0340 104° East 501 577 38,000  Climbing FlightAware
02:52AM 50.9614 3.1328 104° East 490 564 36,400  Descending FlightAware UK
02:53AM 50.9540 3.1820 104° East 500 575 38,000  Climbing FlightAware
02:53AM 50.9377 3.2823 104° East 490 564 36,400  Descending FlightAware UK
02:53AM 50.9270 3.3460 104° East 500 575 38,000 1,959 Climbing FlightAware
02:54AM 50.9100 3.4520 104° East 499 574 38,000 -1,811 Level FlightAware
02:54AM 50.8967 3.5368 104° East 490 564 36,400  Descending FlightAware UK
02:54AM 50.8910 3.5700 104° East 499 574 38,000 1,684 Climbing FlightAware
02:55AM 50.8650 3.7280 105° East 499 574 38,000 -494 Level FlightAware
02:56AM 50.8420 3.8670 105° East 490 564 37,300 -1,482 Descending FlightAware
02:57AM 50.8170 4.0170 105° East 473 544 35,900 -3,253 Descending FlightAware
02:57AM 50.7933 4.1562 105° East 458 527 32,800 -1,950 Descending FlightAware UK
02:57AM 50.7960 4.1380 105° East 471 542 34,600 -2,000 Climbing FlightAware
02:58AM 50.7801 4.2358 105° East 464 534 32,000 -2,400 Descending FlightAware UK
02:58AM 50.7710 4.2870 105° East 460 529 33,000 -2,167 Climbing FlightAware
02:58AM 50.7599 4.3534 105° East 456 525 30,700 -4,571 Descending FlightAware UK
02:59AM 50.7455 4.4292 107° East 450 518 29,800 1,333 Descending FlightAware UK
02:59AM 50.7470 4.4280 107° East 451 519 31,300 140 Climbing FlightAware
02:59AM 50.7260 4.5510 105° East 441 507 29,900 -2,143 Descending FlightAware
03:00AM 50.7020 4.6870 106° East 433 498 28,300 -2,214 Descending FlightAware
03:01AM 50.6810 4.8090 105° East 426 490 26,800 -2,188 Descending FlightAware
03:01AM 50.6570 4.9420 106° East 418 481 25,200 -1,835 Descending FlightAware
03:02AM 50.6340 5.0560 108° East 411 473 24,200 -1,482 Descending FlightAware
03:03AM 50.6050 5.1860 109° East 405 466 23,100 -1,412 Descending FlightAware
03:04AM 50.5730 5.2920 115° Southeast 401 461 22,200 -1,341 Descending FlightAware
03:04AM 50.5390 5.4060 115° Southeast 396 456 21,200 -1,271 Descending FlightAware
03:05AM 50.5110 5.5050 114° Southeast 389 448 20,400 -1,275 Descending FlightAware
03:06AM 50.4810 5.6120 114° Southeast 386 444 19,500 -1,765 Descending FlightAware
03:06AM 50.4480 5.7270 114° Southeast 389 448 17,900 -2,118 Descending FlightAware
03:07AM 50.4170 5.8320 115° Southeast 387 445 16,500 -1,976 Descending FlightAware
03:08AM 50.3840 5.9450 115° Southeast 377 434 15,100 -1,059 Descending FlightAware
03:08AM 50.3580 6.0360 114° Southeast 345 397 15,000 -450 Descending FlightAware
03:09AM 50.3330 6.1210 115° Southeast 315 362 14,500 -988 Descending FlightAware
03:10AM 50.3180 6.2240 103° East 300 345 13,600 -1,133 Descending FlightAware
03:11AM 50.3070 6.3140 101° East 295 339 12,800 -1,200 Descending FlightAware
03:11AM 50.2980 6.3840 101° East 292 336 12,000 -1,350 Descending FlightAware
03:12AM 50.2870 6.4810 100° East 287 330 11,000 -1,341 Descending FlightAware
03:13AM 50.2770 6.5610 101° East 284 327 10,100 -1,371 Descending FlightAware
03:13AM 50.2670 6.6210 105° East 285 328 9,400 -1,309 Descending FlightAware
03:14AM 50.2580 6.6700 106° East 284 327 8,900 -1,050 Descending FlightAware
03:14AM 50.2530 6.6950 107° East 274 315 8,700 -800 Descending FlightAware
03:14AM 50.2420 6.7540 106° East 255 293 8,300 -982 Descending FlightAware
03:15AM 50.2340 6.7990 106° East 249 287 7,800 -1,050 Descending FlightAware
03:15AM 50.2290 6.8220 109° East 247 284 7,600 -1,200 Descending FlightAware
03:15AM 50.2200 6.8730 105° East 247 284 6,900 -1,418 Descending FlightAware
03:16AM 50.2120 6.9190 105° East 244 281 6,300 -1,309 Descending FlightAware
03:16AM 50.2040 6.9660 105° East 241 277 5,700 -1,300 Descending FlightAware
03:17AM 50.1960 7.0150 104° East 233 268 5,000 -873 Descending FlightAware
03:17AM 50.1880 7.0590 106° East 237 273 4,900 -300 Descending FlightAware
03:18AM 50.1840 7.0820 105° East 235 270 4,800 -900 Descending FlightAware
03:18AM 50.1760 7.1220 107° East 233 268 4,300 -1,050 Descending FlightAware
03:18AM 50.1720 7.1470 104° East 228 262 4,100 -533 Descending FlightAware
03:19AM 50.1630 7.1920 107° East 201 231 3,900 -300 Descending FlightAware
03:19AM 50.1600 7.2070 107° East 200 230 3,900  Level FlightAware
03:19AM 50.1510 7.2480 109° East 199 229 3,900  Level FlightAware
03:20AM 50.1430 7.2910 106° East 200 230 3,900  Level FlightAware
03:20AM 50.1360 7.3250 108° East 189 217 3,900  Level FlightAware
03:21AM 50.1280 7.3620 109° East 179 206 3,900  Level FlightAware
03:21AM 50.1200 7.3880 116° Southeast 188 216 3,900  Level FlightAware
03:21AM 50.1100 7.3950 156° South 181 208 3,900  Level FlightAware
03:22AM 50.1010 7.3960 176° South 180 207 3,900  Level FlightAware
03:22AM 50.0680 7.3820 195° South 176 203 3,900 -100 Level FlightAware
03:23AM 50.0560 7.3690 215° Southwest 175 201 3,800 -720 Descending FlightAware
03:23AM 50.0340 7.3480 212° Southwest 175 201 3,300 -982 Descending FlightAware
03:23AM 50.0160 7.3310 211° Southwest 175 201 2,900 -480 Descending FlightAware
03:24AM 50.0010 7.3160 213° Southwest 175 201 2,900  Level FlightAware
03:27AM 49.9487 7.2639 128° Southeast  Level Estimated
03:28AM 49.9487 7.2639 128° Southeast  Level Estimated
03:29AM 49.9487 7.2639 128° Southeast  Level Estimated
03:30AM 49.9487 7.2639 128° Southeast  Level Estimated
03:31AM 49.9487 7.2639 128° Southeast  Level Estimated
03:32AM 49.9487 7.2639 128° Southeast  Level Estimated
03:33AM 49.9487 7.2639 128° Southeast  Level Estimated
03:34AM 49.9487 7.2639 128° Southeast  Level Estimated
03:35AM 49.9487 7.2639 128° Southeast  Level Estimated
03:36AM 49.9487 7.2639 128° Southeast  Level Estimated
03:37AM 49.9487 7.2639 128° Southeast  Level Estimated
03:38AM 49.9487 7.2639 128° Southeast  Level Estimated
03:39AM 49.9487 7.2639 128° Southeast  Level Estimated
03:40AM 49.9487 7.2639 128° Southeast  Level Estimated
03:41AM 49.9487 7.2639 128° Southeast  Level Estimated